createdAt,value
2022-07-27T00:00:39.414Z,21.23
2022-07-27T00:05:42.347Z,15.83
2022-07-27T00:10:45.028Z,17.67
2022-07-27T00:15:47.916Z,19.97
2022-07-27T00:20:50.782Z,17.27
2022-07-27T00:25:53.577Z,17.23
2022-07-27T00:30:56.658Z,18.43
2022-07-27T00:35:59.410Z,17.37
2022-07-27T00:41:02.111Z,19.73
2022-07-27T00:46:05.259Z,30.80
2022-07-27T00:51:08.285Z,20.77
2022-07-27T00:56:11.120Z,18.20
2022-07-27T01:01:13.802Z,22.83
2022-07-27T01:06:27.076Z,20.00
2022-07-27T01:11:30.169Z,22.33
2022-07-27T01:16:33.084Z,22.50
2022-07-27T01:21:36.872Z,20.17
2022-07-27T01:27:05.870Z,25.07
2022-07-27T01:32:09.008Z,29.17
2022-07-27T01:37:11.724Z,22.47
2022-07-27T01:42:16.425Z,23.57
2022-07-27T01:47:19.192Z,19.17
2022-07-27T01:52:22.294Z,20.93
2022-07-27T01:57:25.031Z,20.13
2022-07-27T02:02:27.725Z,21.17
2022-07-27T02:07:30.450Z,16.60
2022-07-27T02:12:35.820Z,17.60
2022-07-27T02:17:40.038Z,17.17
2022-07-27T02:22:45.297Z,19.57
2022-07-27T02:27:48.533Z,25.20
2022-07-27T02:32:51.229Z,18.77
2022-07-27T02:37:53.995Z,23.20
2022-07-27T02:42:56.665Z,18.50
2022-07-27T02:47:59.387Z,21.77
2022-07-27T02:53:02.194Z,21.00
2022-07-27T02:58:04.896Z,21.67
2022-07-27T03:03:07.627Z,18.63
2022-07-27T03:08:10.343Z,17.20
2022-07-27T03:13:13.048Z,20.70
2022-07-27T03:18:15.704Z,19.90
2022-07-27T03:23:21.526Z,17.53
2022-07-27T03:28:24.223Z,17.00
2022-07-27T03:33:26.943Z,18.27
2022-07-27T03:38:29.822Z,17.70
2022-07-27T03:43:32.834Z,17.47
2022-07-27T03:48:35.904Z,14.93
2022-07-27T03:53:38.725Z,20.10
2022-07-27T03:58:41.545Z,14.33
2022-07-27T04:03:44.559Z,13.47
2022-07-27T04:08:47.421Z,12.07
2022-07-27T04:13:51.552Z,15.53
2022-07-27T04:18:54.307Z,11.37
2022-07-27T04:23:56.984Z,14.40
2022-07-27T04:28:59.683Z,11.13
2022-07-27T04:34:02.473Z,11.37
2022-07-27T04:39:05.247Z,11.70
2022-07-27T04:44:08.354Z,10.00
2022-07-27T04:49:11.391Z,10.67
2022-07-27T04:54:14.263Z,10.00
2022-07-27T04:59:17.024Z,16.43
2022-07-27T05:04:19.882Z,12.37
2022-07-27T05:09:22.761Z,14.20
2022-07-27T05:14:25.449Z,8.97
2022-07-27T05:19:40.709Z,8.60
2022-07-27T05:24:43.772Z,9.97
2022-07-27T05:29:46.557Z,11.93
2022-07-27T05:34:49.371Z,10.60
2022-07-27T05:39:52.081Z,8.63
2022-07-27T05:44:55.850Z,10.97
2022-07-27T05:49:59.706Z,7.00
2022-07-27T05:55:02.664Z,8.33
2022-07-27T06:00:07.133Z,8.23
2022-07-27T06:05:15.276Z,7.30
2022-07-27T06:10:18.916Z,10.30
2022-07-27T06:15:21.682Z,9.70
2022-07-27T06:20:25.037Z,9.37
2022-07-27T06:25:33.981Z,8.57
2022-07-27T06:30:38.316Z,9.47
2022-07-27T06:35:41.449Z,7.00
2022-07-27T06:40:44.096Z,7.43
2022-07-27T06:45:46.895Z,9.10
2022-07-27T06:50:50.091Z,8.13
2022-07-27T06:55:53.559Z,7.43
2022-07-27T07:00:59.746Z,8.67
2022-07-27T07:06:02.719Z,7.03
2022-07-27T07:11:05.396Z,11.50
2022-07-27T07:16:08.424Z,7.50
2022-07-27T07:21:11.213Z,6.82
2022-07-27T07:26:13.968Z,5.60
2022-07-27T07:31:19.889Z,9.33
2022-07-27T07:36:22.726Z,7.57
2022-07-27T07:41:25.554Z,8.65
2022-07-27T07:46:28.357Z,6.97
2022-07-27T07:51:32.130Z,6.22
2022-07-27T07:56:34.825Z,6.72
2022-07-27T08:01:37.727Z,5.85
2022-07-27T08:06:40.522Z,8.57
2022-07-27T08:11:43.691Z,7.30
2022-07-27T08:16:49.042Z,5.50
2022-07-27T08:21:51.862Z,6.57
2022-07-27T08:26:54.608Z,8.23
2022-07-27T08:31:57.501Z,7.00
2022-07-27T08:37:02.668Z,14.38
2022-07-27T08:42:09.583Z,15.90
2022-07-27T08:47:15.336Z,20.05
2022-07-27T08:52:18.259Z,15.85
2022-07-27T08:57:21.289Z,15.32
2022-07-27T09:02:25.575Z,15.52
2022-07-27T09:07:32.162Z,18.02
2022-07-27T09:12:36.088Z,13.05
2022-07-27T09:17:49.384Z,14.25
2022-07-27T09:22:56.657Z,16.58
2022-07-27T09:28:00.837Z,15.13
2022-07-27T09:33:06.354Z,12.63
2022-07-27T09:38:19.130Z,16.10
2022-07-27T09:48:44.677Z,13.27
2022-07-27T09:53:47.614Z,12.65
2022-07-27T09:58:56.545Z,14.68
2022-07-27T10:04:02.169Z,21.83
2022-07-27T10:09:05.046Z,14.15
2022-07-27T10:14:08.191Z,13.13
2022-07-27T10:19:16.677Z,12.77
2022-07-27T10:24:32.851Z,14.40
2022-07-27T10:29:35.753Z,10.32
2022-07-27T10:34:41.065Z,13.00
2022-07-27T10:39:51.715Z,11.82
2022-07-27T10:45:17.463Z,9.60
2022-07-27T10:50:23.853Z,14.10
2022-07-27T10:55:32.824Z,14.75
2022-07-27T11:00:54.761Z,11.27
2022-07-27T11:06:31.983Z,11.77
2022-07-27T11:11:34.671Z,14.20
2022-07-27T11:16:54.085Z,16.45
2022-07-27T11:21:58.572Z,10.10
2022-07-27T11:27:01.292Z,9.30
2022-07-27T11:32:20.859Z,11.70
2022-07-27T11:37:24.091Z,10.90
2022-07-27T11:42:38.258Z,12.05
2022-07-27T11:47:41.926Z,11.55
2022-07-27T11:52:44.702Z,11.38
2022-07-27T11:57:47.382Z,11.88
2022-07-27T12:02:51.663Z,8.90
2022-07-27T12:07:55.095Z,7.82
2022-07-27T12:12:57.897Z,7.82
2022-07-27T12:18:00.652Z,7.72
2022-07-27T12:23:08.150Z,11.32
2022-07-27T12:28:13.585Z,8.52
2022-07-27T12:33:28.057Z,8.43
2022-07-27T12:38:46.668Z,8.07
2022-07-27T12:44:04.916Z,6.47
2022-07-27T12:49:16.576Z,6.63
2022-07-27T12:54:19.741Z,6.90
2022-07-27T12:59:23.609Z,7.15
2022-07-27T13:04:26.344Z,6.57
2022-07-27T13:10:03.413Z,7.95
2022-07-27T13:14:52.122Z,6.05
2022-07-27T13:19:54.882Z,5.47
2022-07-27T13:24:57.645Z,6.78
2022-07-27T13:30:00.477Z,5.95
2022-07-27T13:35:03.450Z,6.05
2022-07-27T13:40:07.837Z,6.25
2022-07-27T13:45:12.181Z,6.28
2022-07-27T13:50:19.245Z,5.97
2022-07-27T13:55:27.763Z,5.22
2022-07-27T14:00:31.224Z,5.35
2022-07-27T14:05:34.949Z,6.05
2022-07-27T14:10:41.766Z,6.07
2022-07-27T14:15:53.399Z,6.32
2022-07-27T14:21:00.564Z,6.38
2022-07-27T14:26:05.386Z,5.38
2022-07-27T14:31:11.755Z,5.22
2022-07-27T14:36:15.003Z,4.68
2022-07-27T14:41:17.969Z,4.35
2022-07-27T14:46:20.785Z,3.50
2022-07-27T14:51:23.652Z,3.80
2022-07-27T14:56:26.302Z,4.82
2022-07-27T15:01:29.132Z,3.10
2022-07-27T15:06:38.491Z,3.15
2022-07-27T15:11:41.975Z,3.28
2022-07-27T15:16:46.222Z,3.47
2022-07-27T15:21:48.956Z,3.92
2022-07-27T15:26:51.645Z,2.88
2022-07-27T15:31:54.390Z,3.63
2022-07-27T15:36:58.199Z,2.65
2022-07-27T15:42:00.953Z,4.10
2022-07-27T15:47:04.429Z,3.22
2022-07-27T15:52:07.181Z,2.55
2022-07-27T15:57:10.459Z,2.70
2022-07-27T16:02:13.127Z,5.10
2022-07-27T16:07:16.904Z,1.90
2022-07-27T16:12:19.771Z,3.42
2022-07-27T16:17:22.560Z,2.75
2022-07-27T16:22:25.304Z,4.50
2022-07-27T16:27:28.738Z,2.47
2022-07-27T16:32:32.313Z,3.30
2022-07-27T16:37:35.193Z,1.77
2022-07-27T16:42:38.260Z,1.80
2022-07-27T16:47:41.160Z,2.28
2022-07-27T16:52:43.872Z,2.00
2022-07-27T16:57:46.624Z,3.55
2022-07-27T17:02:49.307Z,2.45
2022-07-27T17:07:52.500Z,2.50
2022-07-27T17:12:57.659Z,4.40
2022-07-27T17:18:00.773Z,2.03
2022-07-27T17:23:04.492Z,3.22
2022-07-27T17:28:07.197Z,3.80
2022-07-27T17:33:09.915Z,3.05
2022-07-27T17:38:13.905Z,2.53
2022-07-27T17:43:16.626Z,4.95
2022-07-27T17:48:20.541Z,2.67
2022-07-27T17:53:23.267Z,3.42
2022-07-27T17:58:30.264Z,3.40
2022-07-27T18:03:33.668Z,2.72
2022-07-27T18:08:36.725Z,3.05
2022-07-27T18:13:40.051Z,3.00
2022-07-27T18:18:45.528Z,5.43
2022-07-27T18:23:48.215Z,2.45
2022-07-27T18:28:52.704Z,5.07
2022-07-27T18:33:56.073Z,2.75
2022-07-27T18:38:58.869Z,2.30
2022-07-27T18:44:01.594Z,3.10
2022-07-27T18:49:05.031Z,3.00
2022-07-27T18:54:07.824Z,3.13
2022-07-27T18:59:11.096Z,3.28
2022-07-27T19:04:15.760Z,4.88
2022-07-27T19:09:19.217Z,6.43
2022-07-27T19:14:23.159Z,2.83
2022-07-27T19:19:26.351Z,2.88
2022-07-27T19:24:29.301Z,3.08
2022-07-27T19:29:32.498Z,3.38
2022-07-27T19:34:35.842Z,6.35
2022-07-27T19:40:02.518Z,3.38
2022-07-27T19:45:01.388Z,3.70
2022-07-27T19:50:05.209Z,4.30
2022-07-27T19:55:08.201Z,4.15
2022-07-27T20:00:11.522Z,2.97
2022-07-27T20:05:14.317Z,6.95
2022-07-27T20:10:17.030Z,2.97
2022-07-27T20:15:19.769Z,4.10
2022-07-27T20:20:25.710Z,8.55
2022-07-27T20:25:28.474Z,9.18
2022-07-27T20:30:32.004Z,9.73
2022-07-27T20:35:37.862Z,7.88
2022-07-27T20:40:40.858Z,6.53
2022-07-27T20:45:43.700Z,6.20
2022-07-27T20:50:46.459Z,8.07
2022-07-27T20:55:49.142Z,4.30
2022-07-27T21:00:51.902Z,3.37
2022-07-27T21:05:54.731Z,3.30
2022-07-27T21:10:57.454Z,3.15
2022-07-27T21:16:00.255Z,2.58
2022-07-27T21:21:03.115Z,3.50
2022-07-27T21:26:05.801Z,2.40
2022-07-27T21:31:08.825Z,4.20
2022-07-27T21:36:11.502Z,3.97
2022-07-27T21:41:14.219Z,2.60
2022-07-27T21:46:17.072Z,5.10
2022-07-27T21:51:21.137Z,6.87
2022-07-27T21:56:24.550Z,6.60
2022-07-27T22:01:27.363Z,6.10
2022-07-27T22:06:30.099Z,2.73
2022-07-27T22:11:32.832Z,5.63
2022-07-27T22:16:35.550Z,7.87
2022-07-27T22:21:38.318Z,3.67
2022-07-27T22:26:41.002Z,4.77
2022-07-27T22:31:44.791Z,4.20
2022-07-27T22:36:47.611Z,4.63
2022-07-27T22:41:50.321Z,3.17
2022-07-27T22:46:53.481Z,3.70
2022-07-27T22:51:56.232Z,3.33
2022-07-27T22:56:58.933Z,2.30
2022-07-27T23:02:02.025Z,4.43
2022-07-27T23:07:04.802Z,2.80
2022-07-27T23:12:07.900Z,3.63
2022-07-27T23:17:10.744Z,3.87
2022-07-27T23:22:13.474Z,4.63
2022-07-27T23:27:19.936Z,4.60
2022-07-27T23:32:22.660Z,3.80
2022-07-27T23:37:25.695Z,6.53
2022-07-27T23:42:28.388Z,3.17
2022-07-27T23:47:31.059Z,4.50
2022-07-27T23:52:33.796Z,7.33
2022-07-27T23:57:36.562Z,3.37
